createdAt,value
2023-02-03T00:00:47.485Z,16.40
2023-02-03T00:03:16.714Z,15.60
2023-02-03T00:05:43.831Z,20.80
2023-02-03T00:08:10.623Z,17.20
2023-02-03T00:10:39.601Z,27.70
2023-02-03T00:13:06.913Z,34.80
2023-02-03T00:15:33.870Z,35.10
2023-02-03T00:18:00.598Z,22.10
2023-02-03T00:20:27.704Z,22.60
2023-02-03T00:22:55.203Z,16.00
2023-02-03T00:25:21.961Z,32.10
2023-02-03T00:27:49.404Z,33.20
2023-02-03T00:30:17.266Z,32.40
2023-02-03T00:32:44.542Z,35.00
2023-02-03T00:35:11.972Z,29.50
2023-02-03T00:37:39.125Z,46.30
2023-02-03T00:40:08.123Z,40.10
2023-02-03T00:42:35.365Z,38.00
2023-02-03T00:45:02.229Z,29.70
2023-02-03T00:47:29.251Z,22.40
2023-02-03T00:49:57.870Z,20.50
2023-02-03T00:52:25.088Z,32.30
2023-02-03T00:54:51.982Z,35.20
2023-02-03T00:57:19.018Z,38.60
2023-02-03T00:59:45.727Z,35.10
2023-02-03T01:02:16.508Z,21.70
2023-02-03T01:04:43.808Z,19.80
2023-02-03T01:07:10.985Z,17.60
2023-02-03T01:09:38.001Z,18.80
2023-02-03T01:12:05.494Z,18.80
2023-02-03T01:14:34.262Z,17.40
2023-02-03T01:17:01.008Z,15.20
2023-02-03T01:19:27.900Z,14.10
2023-02-03T01:21:54.785Z,13.80
2023-02-03T01:24:22.231Z,14.50
2023-02-03T01:26:50.303Z,13.40
2023-02-03T01:29:17.359Z,15.00
2023-02-03T01:31:44.273Z,10.10
2023-02-03T01:34:12.794Z,13.10
2023-02-03T01:36:39.558Z,14.30
2023-02-03T01:39:07.484Z,14.90
2023-02-03T01:41:37.156Z,13.80
2023-02-03T01:44:33.420Z,12.50
2023-02-03T01:47:00.285Z,15.00
2023-02-03T01:49:33.253Z,14.70
2023-02-03T01:51:59.986Z,14.00
2023-02-03T01:54:38.302Z,12.10
2023-02-03T01:57:27.683Z,14.90
2023-02-03T01:59:55.352Z,13.30
2023-02-03T02:02:22.231Z,14.50
2023-02-03T02:04:55.618Z,14.30
2023-02-03T02:07:23.246Z,14.50
2023-02-03T02:09:50.378Z,15.90
2023-02-03T02:12:17.115Z,14.30
2023-02-03T02:14:43.859Z,16.20
2023-02-03T02:17:33.351Z,16.90
2023-02-03T02:20:44.716Z,15.40
2023-02-03T02:23:17.787Z,18.20
2023-02-03T02:25:56.426Z,16.60
2023-02-03T02:28:43.877Z,17.50
2023-02-03T02:31:33.104Z,20.80
2023-02-03T02:34:19.058Z,19.10
2023-02-03T02:36:46.464Z,19.70
2023-02-03T02:39:31.937Z,24.70
2023-02-03T02:42:06.735Z,21.00
2023-02-03T02:44:40.902Z,28.10
2023-02-03T02:47:20.973Z,21.00
2023-02-03T02:50:01.189Z,18.70
2023-02-03T02:52:30.079Z,17.20
2023-02-03T02:55:01.968Z,21.70
2023-02-03T02:57:29.191Z,20.80
2023-02-03T02:59:56.749Z,18.70
2023-02-03T03:02:35.005Z,18.30
2023-02-03T03:05:04.404Z,18.00
2023-02-03T03:07:33.557Z,21.10
2023-02-03T03:10:02.375Z,18.50
2023-02-03T03:12:31.864Z,20.30
2023-02-03T03:15:11.054Z,21.60
2023-02-03T03:17:42.102Z,19.50
2023-02-03T03:20:15.644Z,23.80
2023-02-03T03:22:53.624Z,22.60
2023-02-03T03:25:24.109Z,27.30
2023-02-03T03:27:57.245Z,23.00
2023-02-03T03:30:26.843Z,26.00
2023-02-03T03:32:54.208Z,21.10
2023-02-03T03:35:21.053Z,28.60
2023-02-03T03:37:58.576Z,18.00
2023-02-03T03:40:29.783Z,15.50
2023-02-03T03:43:00.714Z,17.50
2023-02-03T03:45:58.180Z,16.60
2023-02-03T03:48:47.280Z,16.50
2023-02-03T03:51:38.607Z,14.60
2023-02-03T03:54:07.756Z,13.30
2023-02-03T03:57:14.945Z,16.50
2023-02-03T03:59:46.600Z,11.60
2023-02-03T04:02:13.572Z,13.80
2023-02-03T04:04:41.105Z,11.10
2023-02-03T04:07:07.876Z,13.60
2023-02-03T04:09:36.537Z,13.80
2023-02-03T04:12:05.817Z,10.70
2023-02-03T04:14:38.148Z,6.60
2023-02-03T04:17:08.334Z,7.90
2023-02-03T04:19:35.161Z,8.50
2023-02-03T04:22:02.881Z,7.90
2023-02-03T04:24:29.822Z,6.30
2023-02-03T04:26:56.571Z,7.50
2023-02-03T04:29:23.739Z,5.50
2023-02-03T04:31:50.410Z,6.80
2023-02-03T04:34:17.544Z,5.20
2023-02-03T04:36:44.362Z,4.40
2023-02-03T04:39:11.225Z,3.20
2023-02-03T04:41:38.027Z,2.80
2023-02-03T04:44:05.377Z,3.80
2023-02-03T04:46:32.269Z,4.50
2023-02-03T04:48:59.015Z,3.40
2023-02-03T04:51:25.725Z,3.80
2023-02-03T04:53:53.017Z,8.30
2023-02-03T04:56:19.845Z,4.80
2023-02-03T04:58:46.792Z,3.60
2023-02-03T05:01:13.543Z,3.40
2023-02-03T05:03:40.511Z,2.90
2023-02-03T05:06:07.717Z,7.80
2023-02-03T05:08:36.129Z,3.50
2023-02-03T05:11:03.575Z,4.20
2023-02-03T05:21:12.815Z,5.00
2023-02-03T05:23:40.951Z,5.60
2023-02-03T05:26:09.697Z,4.80
2023-02-03T05:28:39.097Z,6.20
2023-02-03T05:31:07.331Z,6.80
2023-02-03T05:33:36.664Z,6.00
2023-02-03T05:36:05.771Z,5.60
2023-02-03T05:38:34.457Z,5.40
2023-02-03T05:41:21.373Z,5.30
2023-02-03T05:44:07.075Z,5.20
2023-02-03T05:46:35.632Z,5.20
2023-02-03T05:49:03.908Z,3.70
2023-02-03T05:51:32.840Z,4.20
2023-02-03T05:54:03.054Z,6.40
2023-02-03T05:56:31.294Z,4.20
2023-02-03T05:58:59.458Z,4.60
2023-02-03T06:01:28.124Z,7.00
2023-02-03T06:03:56.719Z,7.10
2023-02-03T06:06:25.171Z,3.90
2023-02-03T06:08:57.282Z,5.40
2023-02-03T06:11:28.762Z,4.50
2023-02-03T06:13:59.794Z,2.70
2023-02-03T06:16:29.014Z,5.60
2023-02-03T06:19:00.996Z,7.10
2023-02-03T06:21:37.874Z,5.60
2023-02-03T06:24:10.023Z,5.70
2023-02-03T06:26:39.804Z,4.40
2023-02-03T06:29:08.209Z,8.90
2023-02-03T06:31:36.971Z,5.60
2023-02-03T06:34:05.687Z,7.70
2023-02-03T06:36:34.315Z,5.20
2023-02-03T06:39:02.315Z,6.70
2023-02-03T06:41:32.969Z,6.30
2023-02-03T06:44:01.226Z,4.80
2023-02-03T06:46:31.286Z,8.70
2023-02-03T06:48:59.721Z,7.30
2023-02-03T06:51:28.398Z,6.50
2023-02-03T06:53:58.908Z,8.80
2023-02-03T06:56:27.534Z,8.40
2023-02-03T06:58:56.222Z,5.90
2023-02-03T07:01:26.440Z,8.30
2023-02-03T07:03:58.154Z,8.70
2023-02-03T07:06:29.302Z,13.10
2023-02-03T07:08:59.557Z,11.70
2023-02-03T07:11:33.777Z,9.40
2023-02-03T07:14:08.081Z,5.70
2023-02-03T07:16:37.688Z,8.90
2023-02-03T07:19:06.135Z,8.00
2023-02-03T07:21:39.236Z,6.20
2023-02-03T07:24:07.743Z,14.90
2023-02-03T07:26:36.650Z,10.50
2023-02-03T07:29:05.627Z,12.30
2023-02-03T07:31:35.851Z,11.20
2023-02-03T07:34:05.143Z,7.70
2023-02-03T07:36:33.701Z,8.10
2023-02-03T07:39:02.164Z,11.10
2023-02-03T07:41:30.732Z,9.40
2023-02-03T07:44:05.531Z,8.70
2023-02-03T07:46:45.039Z,9.40
2023-02-03T07:49:14.566Z,10.10
2023-02-03T07:51:43.473Z,10.40
2023-02-03T07:54:12.229Z,7.10
2023-02-03T07:57:00.697Z,9.00
2023-02-03T07:59:29.070Z,12.70
2023-02-03T08:01:57.694Z,9.50
2023-02-03T08:04:26.583Z,10.00
2023-02-03T08:06:55.402Z,8.70
2023-02-03T08:09:30.094Z,12.10
2023-02-03T08:12:00.369Z,12.60
2023-02-03T08:14:34.460Z,12.10
2023-02-03T08:17:03.858Z,13.60
2023-02-03T08:19:34.289Z,15.40
2023-02-03T08:22:22.716Z,10.90
2023-02-03T08:25:16.374Z,16.70
2023-02-03T08:28:39.086Z,15.00
2023-02-03T08:31:25.659Z,14.20
2023-02-03T08:33:55.168Z,14.70
2023-02-03T08:36:23.800Z,17.50
2023-02-03T08:38:52.124Z,12.50
2023-02-03T08:41:20.822Z,10.90
2023-02-03T08:43:49.496Z,10.30
2023-02-03T08:46:20.437Z,13.80
2023-02-03T08:48:50.578Z,12.40
2023-02-03T08:54:18.682Z,14.60
2023-02-03T08:56:53.192Z,16.30
2023-02-03T08:59:24.336Z,13.40
2023-02-03T09:01:54.000Z,10.70
2023-02-03T09:04:25.644Z,7.80
2023-02-03T09:06:57.330Z,11.10
2023-02-03T09:09:26.967Z,14.50
2023-02-03T09:12:01.152Z,12.40
2023-02-03T09:14:30.414Z,12.40
2023-02-03T09:17:00.244Z,10.70
2023-02-03T09:19:31.063Z,9.30
2023-02-03T09:22:00.768Z,6.60
2023-02-03T09:24:29.880Z,9.30
2023-02-03T09:27:01.286Z,8.60
2023-02-03T09:29:38.457Z,12.00
2023-02-03T09:32:10.827Z,9.10
2023-02-03T09:34:41.350Z,6.40
2023-02-03T09:37:10.257Z,5.90
2023-02-03T09:39:39.172Z,8.90
2023-02-03T09:42:42.005Z,8.30
2023-02-03T09:45:25.449Z,4.70
2023-02-03T09:48:20.816Z,7.00
2023-02-03T09:50:51.822Z,5.90
2023-02-03T09:53:45.363Z,5.40
2023-02-03T09:56:50.337Z,5.30
2023-02-03T09:59:19.612Z,5.70
2023-02-03T10:02:03.218Z,4.30
2023-02-03T10:04:38.222Z,10.80
2023-02-03T10:07:06.655Z,4.30
2023-02-03T10:09:48.022Z,6.50
2023-02-03T10:12:38.537Z,10.80
2023-02-03T10:15:22.639Z,8.30
2023-02-03T10:18:01.528Z,5.90
2023-02-03T10:20:36.004Z,6.10
2023-02-03T10:23:07.851Z,7.40
2023-02-03T10:25:38.699Z,8.70
2023-02-03T10:28:19.451Z,9.00
2023-02-03T10:30:50.409Z,10.90
2023-02-03T10:33:19.302Z,6.10
2023-02-03T10:35:52.169Z,7.90
2023-02-03T10:38:52.102Z,6.10
2023-02-03T10:41:41.491Z,6.50
2023-02-03T10:44:11.546Z,7.90
2023-02-03T10:46:44.029Z,5.90
2023-02-03T10:49:13.871Z,4.70
2023-02-03T10:51:49.433Z,7.00
2023-02-03T10:54:35.547Z,6.10
2023-02-03T10:57:06.512Z,7.10
2023-02-03T10:59:36.526Z,6.20
2023-02-03T11:02:11.398Z,8.60
2023-02-03T11:04:41.002Z,8.70
2023-02-03T11:07:26.113Z,5.20
2023-02-03T11:09:54.806Z,7.90
2023-02-03T11:12:24.461Z,4.50
2023-02-03T11:15:15.620Z,4.50
2023-02-03T11:17:44.248Z,4.20
2023-02-03T11:20:16.705Z,3.40
2023-02-03T11:22:45.241Z,3.70
2023-02-03T11:25:20.861Z,7.00
2023-02-03T11:27:49.061Z,6.90
2023-02-03T11:30:24.107Z,2.70
2023-02-03T11:32:53.166Z,6.20
2023-02-03T11:35:25.325Z,3.80
2023-02-03T11:37:54.964Z,2.90
2023-02-03T11:40:25.260Z,6.20
2023-02-03T11:42:56.716Z,20.30
2023-02-03T11:45:42.200Z,27.50
2023-02-03T11:48:32.037Z,24.20
2023-02-03T11:51:18.606Z,17.70
2023-02-03T11:54:07.927Z,25.20
2023-02-03T11:57:01.937Z,17.50
2023-02-03T11:59:53.895Z,14.90
2023-02-03T12:03:01.375Z,12.60
2023-02-03T12:05:58.507Z,7.40
2023-02-03T12:08:35.903Z,9.60
2023-02-03T12:11:34.841Z,14.80
2023-02-03T12:14:14.535Z,7.80
2023-02-03T12:17:22.800Z,7.70
2023-02-03T12:20:36.795Z,16.00
2023-02-03T12:23:17.739Z,5.30
2023-02-03T12:25:58.140Z,3.20
2023-02-03T12:29:06.029Z,6.10
2023-02-03T12:31:38.464Z,6.30
2023-02-03T12:34:17.104Z,14.30
2023-02-03T12:37:03.065Z,4.30
2023-02-03T12:39:34.437Z,2.30
2023-02-03T12:42:13.857Z,4.40
2023-02-03T12:44:53.468Z,2.30
2023-02-03T12:47:48.907Z,7.50
2023-02-03T12:50:47.665Z,8.20
2023-02-03T12:53:20.737Z,5.00
2023-02-03T12:56:02.970Z,5.20
2023-02-03T12:58:37.121Z,11.20
2023-02-03T13:01:36.932Z,6.80
2023-02-03T13:04:17.984Z,4.20
2023-02-03T13:07:10.802Z,7.40
2023-02-03T13:09:58.451Z,7.70
2023-02-03T13:12:35.589Z,4.00
2023-02-03T13:15:18.534Z,5.30
2023-02-03T13:17:55.696Z,5.90
2023-02-03T13:20:26.007Z,8.90
2023-02-03T13:22:54.615Z,9.60
2023-02-03T13:25:35.122Z,8.20
2023-02-03T13:30:50.496Z,4.10
2023-02-03T13:33:37.317Z,4.70
2023-02-03T13:36:46.348Z,5.40
2023-02-03T13:39:47.460Z,3.60
2023-02-03T13:42:26.493Z,2.50
2023-02-03T13:45:14.540Z,6.20
2023-02-03T13:47:47.000Z,7.70
2023-02-03T13:50:22.800Z,13.40
2023-02-03T13:53:02.288Z,23.90
2023-02-03T13:55:33.631Z,66.60
2023-02-03T13:58:02.804Z,41.00
2023-02-03T14:00:43.945Z,19.20
2023-02-03T14:03:16.778Z,29.20
2023-02-03T14:05:49.897Z,30.00
2023-02-03T14:08:25.591Z,18.60
2023-02-03T14:11:32.512Z,12.80
2023-02-03T14:14:07.081Z,5.70
2023-02-03T14:16:44.120Z,14.40
2023-02-03T14:19:33.191Z,13.00
2023-02-03T14:22:05.911Z,12.50
2023-02-03T14:24:39.207Z,25.40
2023-02-03T14:27:19.016Z,16.80
2023-02-03T14:30:16.968Z,15.90
2023-02-03T14:32:49.884Z,14.50
2023-02-03T14:35:31.868Z,13.40
2023-02-03T14:38:05.362Z,18.90
2023-02-03T14:40:48.889Z,22.90
2023-02-03T14:43:34.931Z,30.60
2023-02-03T14:46:12.605Z,22.10
2023-02-03T14:48:56.409Z,18.90
2023-02-03T14:52:24.485Z,16.00
2023-02-03T14:54:58.595Z,7.50
2023-02-03T14:57:53.395Z,16.10
2023-02-03T15:00:25.457Z,12.60
2023-02-03T15:03:09.406Z,13.60
2023-02-03T15:05:45.682Z,20.10
2023-02-03T15:08:40.469Z,13.30
2023-02-03T15:11:16.837Z,21.80
2023-02-03T15:13:45.007Z,28.50
2023-02-03T15:17:04.273Z,38.50
2023-02-03T15:19:34.740Z,56.20
2023-02-03T15:22:03.001Z,51.20
2023-02-03T15:24:35.766Z,42.80
2023-02-03T15:27:04.339Z,44.20
2023-02-03T15:29:34.171Z,41.60
2023-02-03T15:32:14.420Z,30.00
2023-02-03T15:34:48.050Z,35.70
2023-02-03T15:37:28.837Z,42.60
2023-02-03T15:40:01.516Z,43.30
2023-02-03T15:42:41.921Z,38.40
2023-02-03T15:45:29.825Z,28.70
2023-02-03T15:48:01.853Z,26.80
2023-02-03T15:50:34.428Z,33.80
2023-02-03T15:53:10.325Z,21.40
2023-02-03T15:55:49.433Z,21.00
2023-02-03T15:58:25.435Z,17.80
2023-02-03T16:00:55.346Z,20.30
2023-02-03T16:03:33.840Z,27.40
2023-02-03T16:06:18.745Z,17.80
2023-02-03T16:08:48.273Z,42.50
2023-02-03T16:11:24.523Z,91.80
2023-02-03T16:13:55.626Z,95.90
2023-02-03T16:16:29.689Z,100.90
2023-02-03T16:19:00.625Z,51.10
2023-02-03T16:21:37.226Z,28.60
2023-02-03T16:24:06.465Z,25.30
2023-02-03T16:26:36.797Z,34.50
2023-02-03T16:29:26.986Z,55.20
2023-02-03T16:32:14.194Z,51.80
2023-02-03T16:35:01.323Z,39.90
2023-02-03T16:37:52.418Z,127.10
2023-02-03T16:40:40.801Z,87.80
2023-02-03T16:43:30.872Z,64.00
2023-02-03T16:46:18.747Z,46.40
2023-02-03T16:49:05.945Z,29.00
2023-02-03T16:51:40.244Z,55.20
2023-02-03T16:54:13.838Z,30.20
2023-02-03T16:56:42.927Z,32.20
2023-02-03T16:59:11.436Z,80.40
2023-02-03T17:01:39.968Z,70.10
2023-02-03T17:04:11.917Z,76.70
2023-02-03T17:06:41.169Z,63.40
2023-02-03T17:09:09.829Z,39.70
2023-02-03T17:11:39.352Z,32.20
2023-02-03T17:14:08.021Z,26.20
2023-02-03T17:16:38.211Z,31.00
2023-02-03T17:19:06.525Z,30.80
2023-02-03T17:21:35.304Z,25.60
2023-02-03T17:24:03.889Z,35.20
2023-02-03T17:26:34.554Z,31.20
2023-02-03T17:31:32.245Z,31.40
2023-02-03T17:34:00.885Z,21.60
2023-02-03T17:36:29.364Z,24.00
2023-02-03T17:55:33.864Z,94.70
2023-02-03T17:58:04.237Z,37.00
2023-02-03T18:00:32.849Z,44.70
2023-02-03T18:03:01.680Z,112.90
2023-02-03T18:08:20.169Z,46.30
2023-02-03T18:10:49.117Z,41.60
2023-02-03T18:16:05.886Z,30.20
2023-02-03T18:18:39.033Z,55.50
2023-02-03T18:21:09.153Z,34.30
2023-02-03T18:23:37.632Z,26.10
2023-02-03T18:26:07.438Z,22.60
2023-02-03T18:28:36.747Z,27.00
2023-02-03T18:31:13.950Z,23.10
2023-02-03T18:33:43.311Z,21.10
2023-02-03T18:36:13.098Z,34.20
2023-02-03T18:38:42.335Z,31.60
2023-02-03T18:41:18.598Z,29.90
2023-02-03T18:43:49.165Z,28.30
2023-02-03T18:48:47.637Z,49.90
2023-02-03T18:51:16.977Z,59.10
2023-02-03T18:53:46.809Z,95.30
2023-02-03T18:56:17.338Z,101.90
2023-02-03T18:58:45.956Z,109.50
2023-02-03T19:01:27.849Z,56.90
2023-02-03T19:03:56.800Z,28.10
2023-02-03T19:06:25.454Z,51.30
2023-02-03T19:08:53.679Z,49.10
2023-02-03T19:11:22.588Z,39.40
2023-02-03T19:13:51.712Z,46.00
2023-02-03T19:16:19.971Z,47.50
2023-02-03T19:18:48.771Z,60.80
2023-02-03T19:21:17.531Z,51.40
2023-02-03T19:26:31.799Z,37.40
2023-02-03T19:29:00.203Z,44.10
2023-02-03T19:31:28.440Z,38.60
2023-02-03T19:33:59.067Z,38.10
2023-02-03T19:36:28.302Z,42.90
2023-02-03T19:38:56.875Z,44.00
2023-02-03T19:41:28.025Z,41.00
2023-02-03T19:43:56.382Z,49.00
2023-02-03T19:46:25.757Z,56.30
2023-02-03T19:48:54.490Z,49.90
2023-02-03T19:51:24.413Z,39.70
2023-02-03T19:53:53.741Z,35.60
2023-02-03T19:56:22.189Z,36.50
2023-02-03T19:58:52.276Z,42.10
2023-02-03T20:01:27.188Z,43.80
2023-02-03T20:04:18.210Z,34.70
2023-02-03T20:07:07.346Z,44.60
2023-02-03T20:09:48.181Z,42.40
2023-02-03T20:12:25.861Z,45.30
2023-02-03T20:15:05.717Z,44.50
2023-02-03T20:17:43.090Z,49.70
2023-02-03T20:20:12.107Z,70.70
2023-02-03T20:22:43.345Z,42.30
2023-02-03T20:25:12.054Z,62.90
2023-02-03T20:27:40.663Z,67.60
2023-02-03T20:30:10.125Z,42.30
2023-02-03T20:32:38.416Z,44.50
2023-02-03T20:35:07.497Z,49.00
2023-02-03T20:37:36.487Z,48.90
2023-02-03T20:40:11.878Z,58.60
2023-02-03T20:42:40.414Z,44.60
2023-02-03T20:45:26.955Z,42.50
2023-02-03T20:47:55.803Z,24.10
2023-02-03T20:50:31.582Z,15.70
2023-02-03T20:53:12.791Z,28.90
2023-02-03T20:55:41.429Z,22.90
2023-02-03T20:58:15.618Z,12.70
2023-02-03T21:00:45.955Z,34.20
2023-02-03T21:03:33.489Z,27.40
2023-02-03T21:06:02.092Z,20.00
2023-02-03T21:08:36.389Z,21.00
2023-02-03T21:11:19.185Z,35.00
2023-02-03T21:13:48.137Z,26.20
2023-02-03T21:16:36.732Z,24.80
2023-02-03T21:21:40.413Z,16.90
2023-02-03T21:24:28.258Z,20.50
2023-02-03T21:26:57.027Z,40.30
2023-02-03T21:29:26.828Z,24.70
